createdAt,value
2019-03-24T00:00:50.687Z,73.61
2019-03-24T00:03:23.056Z,75.99
2019-03-24T00:05:54.025Z,75.44
2019-03-24T00:08:24.740Z,75.62
2019-03-24T00:10:55.477Z,75.90
2019-03-24T00:13:26.174Z,76.17
2019-03-24T00:15:57.221Z,76.07
2019-03-24T00:18:27.919Z,74.58
2019-03-24T00:20:58.896Z,75.49
2019-03-24T00:23:30.207Z,76.64
2019-03-24T00:26:00.919Z,76.74
2019-03-24T00:28:31.578Z,76.69
2019-03-24T00:31:02.565Z,75.68
2019-03-24T00:33:33.522Z,76.62
2019-03-24T00:36:04.335Z,75.51
2019-03-24T00:38:35.012Z,74.83
2019-03-24T00:41:06.004Z,76.52
2019-03-24T00:43:36.717Z,76.89
2019-03-24T00:46:07.461Z,76.95
2019-03-24T00:48:38.948Z,77.63
2019-03-24T00:51:09.691Z,78.17
2019-03-24T00:53:40.374Z,79.19
2019-03-24T00:56:11.034Z,78.44
2019-03-24T00:58:41.739Z,79.25
2019-03-24T01:01:12.710Z,78.49
2019-03-24T01:03:43.405Z,78.60
2019-03-24T01:06:14.137Z,78.46
2019-03-24T01:08:45.137Z,78.09
2019-03-24T01:11:17.108Z,77.97
2019-03-24T01:13:47.826Z,78.79
2019-03-24T01:16:18.565Z,78.63
2019-03-24T01:18:49.221Z,78.00
2019-03-24T01:21:20.243Z,78.42
2019-03-24T01:23:50.917Z,79.33
2019-03-24T01:26:21.606Z,78.89
2019-03-24T01:28:52.316Z,77.15
2019-03-24T01:31:23.300Z,78.56
2019-03-24T01:33:53.971Z,77.41
2019-03-24T01:36:24.931Z,76.28
2019-03-24T01:38:55.766Z,79.09
2019-03-24T01:41:26.450Z,78.59
2019-03-24T01:43:57.160Z,78.87
2019-03-24T01:46:28.729Z,79.41
2019-03-24T01:48:59.403Z,77.99
2019-03-24T01:51:30.151Z,78.39
2019-03-24T01:54:00.820Z,78.16
2019-03-24T01:56:31.539Z,78.91
2019-03-24T01:59:02.241Z,79.75
2019-03-24T02:01:33.062Z,81.03
2019-03-24T02:04:04.016Z,79.73
2019-03-24T02:06:34.701Z,79.30
2019-03-24T02:09:07.228Z,78.48
2019-03-24T02:11:37.961Z,79.95
2019-03-24T02:14:08.926Z,80.77
2019-03-24T02:16:39.664Z,79.03
2019-03-24T02:19:10.545Z,79.03
2019-03-24T02:21:41.302Z,77.76
2019-03-24T02:24:11.977Z,80.30
2019-03-24T02:26:42.715Z,79.61
2019-03-24T02:29:13.423Z,79.24
2019-03-24T02:31:44.689Z,76.82
2019-03-24T02:34:15.689Z,76.71
2019-03-24T02:36:46.583Z,77.68
2019-03-24T02:39:17.520Z,80.58
2019-03-24T02:41:48.233Z,79.26
2019-03-24T02:44:18.958Z,79.82
2019-03-24T02:46:49.946Z,78.16
2019-03-24T02:49:20.713Z,78.96
2019-03-24T02:51:51.664Z,78.38
2019-03-24T02:54:22.361Z,79.14
2019-03-24T02:56:53.070Z,80.60
2019-03-24T02:59:23.761Z,80.16
2019-03-24T03:01:55.744Z,80.09
2019-03-24T03:04:26.763Z,78.66
2019-03-24T03:06:57.460Z,80.35
2019-03-24T03:09:28.245Z,79.00
2019-03-24T03:11:59.016Z,80.91
2019-03-24T03:14:29.845Z,80.54
2019-03-24T03:17:02.231Z,80.06
2019-03-24T03:19:32.966Z,80.33
2019-03-24T03:22:03.633Z,79.94
2019-03-24T03:24:34.301Z,79.78
2019-03-24T03:27:05.041Z,78.57
2019-03-24T03:29:35.712Z,78.37
2019-03-24T03:32:06.444Z,77.92
2019-03-24T03:34:37.123Z,78.95
2019-03-24T03:37:08.077Z,79.97
2019-03-24T03:39:38.748Z,79.85
2019-03-24T03:42:09.630Z,78.48
2019-03-24T03:44:40.310Z,77.31
2019-03-24T03:47:11.037Z,80.11
2019-03-24T03:49:41.711Z,79.69
2019-03-24T03:52:12.453Z,79.74
2019-03-24T03:54:43.391Z,80.22
2019-03-24T03:57:14.118Z,79.61
2019-03-24T03:59:44.843Z,77.94
2019-03-24T04:02:15.576Z,80.24
2019-03-24T04:04:46.251Z,79.25
2019-03-24T04:07:16.960Z,78.53
2019-03-24T04:09:47.672Z,78.07
2019-03-24T04:12:18.649Z,77.50
2019-03-24T04:14:49.368Z,79.59
2019-03-24T04:17:21.317Z,79.23
2019-03-24T04:19:51.976Z,80.07
2019-03-24T04:22:22.965Z,78.85
2019-03-24T04:24:53.752Z,79.76
2019-03-24T04:27:24.564Z,79.56
2019-03-24T04:29:56.416Z,80.71
2019-03-24T04:32:27.529Z,79.75
2019-03-24T04:34:58.316Z,78.60
2019-03-24T04:37:33.203Z,78.70
2019-03-24T04:40:05.083Z,79.94
2019-03-24T04:42:36.931Z,79.42
2019-03-24T04:45:08.018Z,79.29
2019-03-24T04:47:38.811Z,80.64
2019-03-24T04:50:09.853Z,81.19
2019-03-24T04:52:40.628Z,80.25
2019-03-24T04:55:11.610Z,79.43
2019-03-24T04:57:42.400Z,78.95
2019-03-24T05:00:14.464Z,78.46
2019-03-24T05:02:45.270Z,79.84
2019-03-24T05:05:16.148Z,80.53
2019-03-24T05:07:47.496Z,79.62
2019-03-24T05:10:28.035Z,77.24
2019-03-24T05:12:58.887Z,79.47
2019-03-24T05:15:30.019Z,80.66
2019-03-24T05:18:00.845Z,78.54
2019-03-24T05:20:31.979Z,79.80
2019-03-24T05:23:03.007Z,79.19
2019-03-24T05:25:33.958Z,79.31
2019-03-24T05:28:05.857Z,78.97
2019-03-24T05:30:36.713Z,79.19
2019-03-24T05:33:07.522Z,78.04
2019-03-24T05:35:38.331Z,80.85
2019-03-24T05:38:09.193Z,80.11
2019-03-24T05:40:39.965Z,79.15
2019-03-24T05:43:11.430Z,80.09
2019-03-24T05:45:42.174Z,80.54
2019-03-24T05:48:13.018Z,81.13
2019-03-24T05:50:43.823Z,81.77
2019-03-24T05:53:14.652Z,81.06
2019-03-24T05:55:45.516Z,80.82
2019-03-24T05:58:16.267Z,79.62
2019-03-24T06:00:47.159Z,79.08
2019-03-24T06:03:18.399Z,77.89
2019-03-24T06:05:49.178Z,80.31
2019-03-24T06:08:19.941Z,77.94
2019-03-24T06:10:50.693Z,79.05
2019-03-24T06:13:22.447Z,77.85
2019-03-24T06:15:53.502Z,78.73
2019-03-24T06:18:24.252Z,79.46
2019-03-24T06:20:55.327Z,79.29
2019-03-24T06:23:26.376Z,78.65
2019-03-24T06:25:57.167Z,79.85
2019-03-24T06:28:27.972Z,79.71
2019-03-24T06:30:58.732Z,78.31
2019-03-24T06:33:29.568Z,77.70
2019-03-24T06:36:00.288Z,78.55
2019-03-24T06:38:31.023Z,76.46
2019-03-24T06:41:01.918Z,75.45
2019-03-24T06:43:32.698Z,74.30
2019-03-24T06:46:03.755Z,73.49
2019-03-24T06:48:35.376Z,75.61
2019-03-24T06:51:06.146Z,75.14
2019-03-24T06:53:38.687Z,76.98
2019-03-24T06:56:09.533Z,76.06
2019-03-24T06:58:40.345Z,77.17
2019-03-24T07:01:11.516Z,75.68
2019-03-24T07:03:42.680Z,76.62
2019-03-24T07:06:13.432Z,75.21
2019-03-24T07:08:44.243Z,77.07
2019-03-24T07:11:15.305Z,77.04
2019-03-24T07:13:46.165Z,74.58
2019-03-24T07:16:18.556Z,76.44
2019-03-24T07:18:49.435Z,76.90
2019-03-24T07:21:20.228Z,75.23
2019-03-24T07:23:51.001Z,74.14
2019-03-24T07:26:22.048Z,74.80
2019-03-24T07:28:52.826Z,75.92
2019-03-24T07:31:23.671Z,75.17
2019-03-24T07:33:54.586Z,75.87
2019-03-24T07:36:25.383Z,76.10
2019-03-24T07:38:56.396Z,75.85
2019-03-24T07:41:27.626Z,76.07
2019-03-24T07:43:58.464Z,76.15
2019-03-24T07:46:29.162Z,76.42
2019-03-24T07:48:59.938Z,77.37
2019-03-24T07:51:30.931Z,75.14
2019-03-24T07:54:01.932Z,74.44
2019-03-24T07:56:32.729Z,73.54
2019-03-24T07:59:03.407Z,74.62
2019-03-24T08:01:34.119Z,75.99
2019-03-24T08:04:06.034Z,76.32
2019-03-24T08:06:36.990Z,74.44
2019-03-24T08:09:08.163Z,73.98
2019-03-24T08:11:38.972Z,73.86
2019-03-24T08:14:10.524Z,74.00
2019-03-24T08:16:41.225Z,74.88
2019-03-24T08:19:11.992Z,75.32
2019-03-24T08:21:42.689Z,75.45
2019-03-24T08:24:13.397Z,75.88
2019-03-24T08:26:44.204Z,74.41
2019-03-24T08:29:14.994Z,73.84
2019-03-24T08:31:45.674Z,73.55
2019-03-24T08:34:16.683Z,72.31
2019-03-24T08:36:47.813Z,74.22
2019-03-24T08:39:18.538Z,75.69
2019-03-24T08:41:49.260Z,75.53
2019-03-24T08:44:20.121Z,75.69
2019-03-24T08:46:52.022Z,73.91
2019-03-24T08:49:22.981Z,73.89
2019-03-24T08:51:54.035Z,74.90
2019-03-24T08:54:24.746Z,75.26
2019-03-24T08:56:55.447Z,74.53
2019-03-24T08:59:26.577Z,72.96
2019-03-24T09:01:57.403Z,72.50
2019-03-24T09:04:28.165Z,73.00
2019-03-24T09:06:59.149Z,74.16
2019-03-24T09:09:29.883Z,73.39
2019-03-24T09:12:00.900Z,73.17
2019-03-24T09:14:31.597Z,71.91
2019-03-24T09:17:02.360Z,72.45
2019-03-24T09:19:33.126Z,72.72
2019-03-24T09:22:03.785Z,70.36
2019-03-24T09:24:34.824Z,70.67
2019-03-24T09:27:05.548Z,70.05
2019-03-24T09:29:36.278Z,70.10
2019-03-24T09:32:08.053Z,69.09
2019-03-24T09:34:40.552Z,68.99
2019-03-24T09:37:11.380Z,66.85
2019-03-24T09:39:43.748Z,65.85
2019-03-24T09:42:15.822Z,67.71
2019-03-24T09:44:47.236Z,67.87
2019-03-24T09:47:18.229Z,67.34
2019-03-24T09:49:48.994Z,68.92
2019-03-24T09:52:19.675Z,67.94
2019-03-24T09:54:50.444Z,65.58
2019-03-24T09:57:21.127Z,67.54
2019-03-24T09:59:51.837Z,69.55
2019-03-24T10:02:22.812Z,69.97
2019-03-24T10:04:54.961Z,70.16
2019-03-24T10:07:27.764Z,69.95
2019-03-24T10:09:58.583Z,70.25
2019-03-24T10:12:29.379Z,69.92
2019-03-24T10:15:01.632Z,68.62
2019-03-24T10:17:32.665Z,69.74
2019-03-24T10:20:03.627Z,67.82
2019-03-24T10:22:34.270Z,69.38
2019-03-24T10:25:05.111Z,70.81
2019-03-24T10:27:35.763Z,70.71
2019-03-24T10:30:08.485Z,71.71
2019-03-24T10:32:39.122Z,71.60
2019-03-24T10:35:09.881Z,70.56
2019-03-24T10:37:40.641Z,71.69
2019-03-24T10:40:11.632Z,71.51
2019-03-24T10:42:42.267Z,70.47
2019-03-24T10:45:13.920Z,70.56
2019-03-24T10:47:44.563Z,71.41
2019-03-24T10:50:15.317Z,70.57
2019-03-24T10:52:46.047Z,69.96
2019-03-24T10:55:16.895Z,69.91
2019-03-24T10:57:47.521Z,71.45
2019-03-24T11:00:32.877Z,70.07
2019-03-24T11:03:03.496Z,68.24
2019-03-24T11:05:34.196Z,67.67
2019-03-24T11:08:05.145Z,70.77
2019-03-24T11:10:35.826Z,69.15
2019-03-24T11:13:06.730Z,69.89
2019-03-24T11:15:37.410Z,71.53
2019-03-24T11:18:08.123Z,70.12
2019-03-24T11:20:38.865Z,70.51
2019-03-24T11:23:09.491Z,70.00
2019-03-24T11:25:40.154Z,70.36
2019-03-24T11:28:11.145Z,70.48
2019-03-24T11:30:41.805Z,72.86
2019-03-24T11:33:12.475Z,72.99
2019-03-24T11:35:43.372Z,69.63
2019-03-24T11:38:14.389Z,68.57
2019-03-24T11:40:45.029Z,67.26
2019-03-24T11:43:16.938Z,66.64
2019-03-24T11:45:47.591Z,68.66
2019-03-24T11:48:18.257Z,67.27
2019-03-24T11:50:48.932Z,69.94
2019-03-24T11:53:20.143Z,68.92
2019-03-24T11:55:50.863Z,68.58
2019-03-24T11:58:21.511Z,68.57
2019-03-24T12:00:52.219Z,68.90
2019-03-24T12:03:25.235Z,67.86
2019-03-24T12:05:55.522Z,68.41
2019-03-24T12:08:26.163Z,67.73
2019-03-24T12:10:56.840Z,65.82
2019-03-24T12:13:27.547Z,67.51
2019-03-24T12:15:58.489Z,69.57
2019-03-24T12:18:29.145Z,67.73
2019-03-24T12:20:59.840Z,68.64
2019-03-24T12:23:31.058Z,68.80
2019-03-24T12:26:01.731Z,70.33
2019-03-24T12:28:32.386Z,69.80
2019-03-24T12:31:03.359Z,68.06
2019-03-24T12:33:34.052Z,67.99
2019-03-24T12:36:04.966Z,67.81
2019-03-24T12:38:35.896Z,67.82
2019-03-24T12:41:06.841Z,69.52
2019-03-24T12:43:37.610Z,71.41
2019-03-24T12:46:08.307Z,70.65
2019-03-24T12:48:38.969Z,71.02
2019-03-24T12:51:09.966Z,69.76
2019-03-24T12:53:40.625Z,69.13
2019-03-24T12:56:12.107Z,69.99
2019-03-24T12:58:43.398Z,69.44
2019-03-24T13:01:14.098Z,70.41
2019-03-24T13:03:44.816Z,71.67
2019-03-24T13:06:16.019Z,70.89
2019-03-24T13:08:46.638Z,71.05
2019-03-24T13:11:17.323Z,70.45
2019-03-24T13:13:48.312Z,70.71
2019-03-24T13:16:19.254Z,70.50
2019-03-24T13:18:50.134Z,69.71
2019-03-24T13:21:20.834Z,67.76
2019-03-24T13:23:51.468Z,67.98
2019-03-24T13:26:22.168Z,68.49
2019-03-24T13:28:52.816Z,68.22
2019-03-24T13:31:23.486Z,68.12
2019-03-24T13:33:54.145Z,69.55
2019-03-24T13:36:25.834Z,69.36
2019-03-24T13:38:56.753Z,67.86
2019-03-24T13:41:27.409Z,67.79
2019-03-24T13:43:58.062Z,69.71
2019-03-24T13:46:29.015Z,69.42
2019-03-24T13:48:59.913Z,69.68
2019-03-24T13:51:30.590Z,71.16
2019-03-24T13:54:01.491Z,71.75
2019-03-24T13:56:33.368Z,71.67
2019-03-24T13:59:04.004Z,71.60
2019-03-24T14:01:35.029Z,69.07
2019-03-24T14:04:06.005Z,68.57
2019-03-24T14:06:36.974Z,70.29
2019-03-24T14:09:09.229Z,71.50
2019-03-24T14:11:39.960Z,69.25
2019-03-24T14:14:10.618Z,68.86
2019-03-24T14:16:42.186Z,69.67
2019-03-24T14:19:13.159Z,69.36
2019-03-24T14:21:43.829Z,69.77
2019-03-24T14:24:15.755Z,70.49
2019-03-24T14:26:46.430Z,70.54
2019-03-24T14:29:17.066Z,69.32
2019-03-24T14:31:47.818Z,68.76
2019-03-24T14:34:18.486Z,70.76
2019-03-24T14:36:49.424Z,70.98
2019-03-24T14:39:20.577Z,70.33
2019-03-24T14:41:51.293Z,68.80
2019-03-24T14:44:22.865Z,69.26
2019-03-24T14:46:53.540Z,68.85
2019-03-24T14:49:24.446Z,69.35
2019-03-24T14:51:55.399Z,69.28
2019-03-24T14:54:26.275Z,71.29
2019-03-24T14:56:56.970Z,70.68
2019-03-24T14:59:27.893Z,71.33
2019-03-24T15:01:58.600Z,71.21
2019-03-24T15:04:29.546Z,70.42
2019-03-24T15:07:00.523Z,70.55
2019-03-24T15:09:31.992Z,70.23
2019-03-24T15:12:02.663Z,70.29
2019-03-24T15:14:33.582Z,70.48
2019-03-24T15:17:04.263Z,72.53
2019-03-24T15:19:34.925Z,71.12
2019-03-24T15:22:06.200Z,71.03
2019-03-24T15:24:37.017Z,69.98
2019-03-24T15:27:07.756Z,68.23
2019-03-24T15:29:39.017Z,68.92
2019-03-24T15:32:10.025Z,70.55
2019-03-24T15:34:40.675Z,71.07
2019-03-24T15:37:11.336Z,70.87
2019-03-24T15:39:42.018Z,71.27
2019-03-24T15:42:14.017Z,72.25
2019-03-24T15:44:44.737Z,71.64
2019-03-24T15:47:15.399Z,72.13
2019-03-24T15:49:46.062Z,69.27
2019-03-24T15:52:17.049Z,70.21
2019-03-24T15:54:47.701Z,70.89
2019-03-24T15:57:18.813Z,70.05
2019-03-24T15:59:50.496Z,70.82
2019-03-24T16:02:21.339Z,71.79
2019-03-24T16:04:51.973Z,70.49
2019-03-24T16:07:22.929Z,70.46
2019-03-24T16:09:53.592Z,70.75
2019-03-24T16:12:24.558Z,70.54
2019-03-24T16:14:55.747Z,70.72
2019-03-24T16:17:26.682Z,71.55
2019-03-24T16:19:58.071Z,72.02
2019-03-24T16:22:29.117Z,74.13
2019-03-24T16:24:59.807Z,71.89
2019-03-24T16:27:30.477Z,71.76
2019-03-24T16:30:01.207Z,72.08
2019-03-24T16:32:32.110Z,72.74
2019-03-24T16:35:03.107Z,72.87
2019-03-24T16:37:34.771Z,73.47
2019-03-24T16:40:05.517Z,75.47
2019-03-24T16:42:36.780Z,74.70
2019-03-24T16:45:07.924Z,74.33
2019-03-24T16:47:38.582Z,74.87
2019-03-24T16:50:10.103Z,74.36
2019-03-24T16:52:41.067Z,75.16
2019-03-24T16:55:12.405Z,73.35
2019-03-24T16:57:43.053Z,72.31
2019-03-24T17:00:13.974Z,71.37
2019-03-24T17:02:44.963Z,72.40
2019-03-24T17:05:15.628Z,75.76
2019-03-24T17:07:46.317Z,77.80
2019-03-24T17:10:17.922Z,77.37
2019-03-24T17:12:49.202Z,77.52
2019-03-24T17:15:19.841Z,79.72
2019-03-24T17:17:50.797Z,78.55
2019-03-24T17:20:21.444Z,80.75
2019-03-24T17:22:52.116Z,80.11
2019-03-24T17:25:22.765Z,80.14
2019-03-24T17:27:53.449Z,80.37
2019-03-24T17:30:24.488Z,79.70
2019-03-24T17:32:55.154Z,80.20
2019-03-24T17:35:25.769Z,78.94
2019-03-24T17:37:56.448Z,78.10
2019-03-24T17:40:27.106Z,78.21
2019-03-24T17:43:03.677Z,76.77
2019-03-24T17:45:34.557Z,77.08
2019-03-24T17:48:05.268Z,78.09
2019-03-24T17:50:35.924Z,77.38
2019-03-24T17:53:07.084Z,74.66
2019-03-24T17:55:38.686Z,73.57
2019-03-24T17:58:09.432Z,77.73
2019-03-24T18:00:42.803Z,77.24
2019-03-24T18:03:13.832Z,78.71
2019-03-24T18:05:44.504Z,78.76
2019-03-24T18:08:15.239Z,76.51
2019-03-24T18:10:45.868Z,77.13
2019-03-24T18:13:16.564Z,75.16
2019-03-24T18:15:47.285Z,74.65
2019-03-24T18:18:17.975Z,74.04
2019-03-24T18:20:48.697Z,73.58
2019-03-24T18:23:19.359Z,73.59
2019-03-24T18:25:50.001Z,73.31
2019-03-24T18:28:20.691Z,73.87
2019-03-24T18:30:51.422Z,78.30
2019-03-24T18:33:22.117Z,76.61
2019-03-24T18:35:53.753Z,74.29
2019-03-24T18:38:24.733Z,74.29
2019-03-24T18:40:55.651Z,75.60
2019-03-24T18:43:26.312Z,77.00
2019-03-24T18:45:57.026Z,78.18
2019-03-24T18:48:27.790Z,76.63
2019-03-24T18:50:58.411Z,78.23
2019-03-24T18:53:29.358Z,78.76
2019-03-24T18:56:01.066Z,76.68
2019-03-24T18:58:32.961Z,77.92
2019-03-24T19:01:03.620Z,78.15
2019-03-24T19:03:34.350Z,79.02
2019-03-24T19:06:05.016Z,77.95
2019-03-24T19:08:36.543Z,77.16
2019-03-24T19:11:07.189Z,76.04
2019-03-24T19:13:37.883Z,75.83
2019-03-24T19:16:09.064Z,76.81
2019-03-24T19:18:39.717Z,79.01
2019-03-24T19:21:10.385Z,79.29
2019-03-24T19:23:41.152Z,80.25
2019-03-24T19:26:12.166Z,80.37
2019-03-24T19:28:42.902Z,81.16
2019-03-24T19:31:13.602Z,80.91
2019-03-24T19:33:44.568Z,82.64
2019-03-24T19:36:15.209Z,80.35
2019-03-24T19:38:46.146Z,77.96
2019-03-24T19:41:17.045Z,75.94
2019-03-24T19:43:47.799Z,77.54
2019-03-24T19:46:18.479Z,75.35
2019-03-24T19:48:49.312Z,74.00
2019-03-24T19:51:20.033Z,76.54
2019-03-24T19:53:51.125Z,75.24
2019-03-24T19:56:21.872Z,77.40
2019-03-24T19:58:52.873Z,80.07
2019-03-24T20:01:23.780Z,78.47
2019-03-24T20:03:54.427Z,80.92
2019-03-24T20:06:25.144Z,80.25
2019-03-24T20:08:55.843Z,80.60
2019-03-24T20:11:26.523Z,77.27
2019-03-24T20:13:57.446Z,80.55
2019-03-24T20:16:28.074Z,80.50
2019-03-24T20:18:58.745Z,78.56
2019-03-24T20:21:30.474Z,80.09
2019-03-24T20:24:01.191Z,79.17
2019-03-24T20:26:31.881Z,79.59
2019-03-24T20:29:02.549Z,78.07
2019-03-24T20:31:35.322Z,77.62
2019-03-24T20:34:08.984Z,77.12
2019-03-24T20:36:40.885Z,79.86
2019-03-24T20:39:11.863Z,78.94
2019-03-24T20:41:42.803Z,76.72
2019-03-24T20:44:13.774Z,78.91
2019-03-24T20:46:44.733Z,80.18
2019-03-24T20:49:15.501Z,79.31
2019-03-24T20:51:46.226Z,78.42
2019-03-24T20:54:16.916Z,79.59
2019-03-24T20:56:47.575Z,78.44
2019-03-24T20:59:18.315Z,78.12
2019-03-24T21:01:48.949Z,78.06
2019-03-24T21:04:20.358Z,77.81
2019-03-24T21:06:52.117Z,79.80
2019-03-24T21:09:22.927Z,81.47
2019-03-24T21:11:53.647Z,81.50
2019-03-24T21:14:24.319Z,80.63
2019-03-24T21:16:54.973Z,80.70
2019-03-24T21:19:25.656Z,79.27
2019-03-24T21:21:56.734Z,80.95
2019-03-24T21:24:27.404Z,80.30
2019-03-24T21:26:58.078Z,80.74
2019-03-24T21:29:28.781Z,81.64
2019-03-24T21:31:59.396Z,81.52
2019-03-24T21:34:30.053Z,82.21
2019-03-24T21:37:00.681Z,82.87
2019-03-24T21:39:31.370Z,81.40
2019-03-24T21:42:02.009Z,81.65
2019-03-24T21:44:32.670Z,82.11
2019-03-24T21:47:03.307Z,81.09
2019-03-24T21:49:33.957Z,80.29
2019-03-24T21:52:04.651Z,80.31
2019-03-24T21:54:35.588Z,81.30
2019-03-24T21:57:06.271Z,81.33
2019-03-24T21:59:37.605Z,80.92
2019-03-24T22:02:08.632Z,80.26
2019-03-24T22:04:39.456Z,79.92
2019-03-24T22:07:10.126Z,79.31
2019-03-24T22:09:41.035Z,80.62
2019-03-24T22:12:11.669Z,79.54
2019-03-24T22:14:43.398Z,80.02
2019-03-24T22:17:15.366Z,82.05
2019-03-24T22:19:46.540Z,82.18
2019-03-24T22:22:17.168Z,82.05
2019-03-24T22:24:48.093Z,82.41
2019-03-24T22:27:18.720Z,82.91
2019-03-24T22:29:49.402Z,81.93
2019-03-24T22:32:20.326Z,81.95
2019-03-24T22:34:50.972Z,81.21
2019-03-24T22:37:21.625Z,80.01
2019-03-24T22:39:52.316Z,81.36
2019-03-24T22:42:22.968Z,80.94
2019-03-24T22:44:53.639Z,82.84
2019-03-24T22:47:24.315Z,80.28
2019-03-24T22:49:55.240Z,80.30
2019-03-24T22:52:26.122Z,80.33
2019-03-24T22:54:56.805Z,78.66
2019-03-24T22:57:27.828Z,80.02
2019-03-24T22:59:58.460Z,79.40
2019-03-24T23:02:29.098Z,79.26
2019-03-24T23:04:59.792Z,80.80
2019-03-24T23:07:30.685Z,80.81
2019-03-24T23:10:02.337Z,80.84
2019-03-24T23:12:34.673Z,80.36
2019-03-24T23:15:05.559Z,80.73
2019-03-24T23:17:36.290Z,80.97
2019-03-24T23:20:07.205Z,80.21
2019-03-24T23:22:37.882Z,80.69
2019-03-24T23:25:08.894Z,79.58
2019-03-24T23:27:39.615Z,80.45
2019-03-24T23:30:11.107Z,80.17
2019-03-24T23:32:43.042Z,80.56
2019-03-24T23:35:13.777Z,80.59
2019-03-24T23:37:44.417Z,81.29
2019-03-24T23:40:16.379Z,81.13
2019-03-24T23:42:47.024Z,81.30
2019-03-24T23:45:17.952Z,81.30
2019-03-24T23:47:48.650Z,81.16
2019-03-24T23:50:19.582Z,80.70
2019-03-24T23:52:50.269Z,79.81
2019-03-24T23:55:21.215Z,78.69
2019-03-24T23:57:51.868Z,77.63
